sensor_id;sensor_type;location;lat;lon;timestamp;P1;durP1;ratioP1;P2;durP2;ratioP2
11988;SDS011;6054;50.966;7.094;2023-11-21T00:02:24;8.38;;;4.15;;
11988;SDS011;6054;50.966;7.094;2023-11-21T00:04:52;4.32;;;3.55;;
11988;SDS011;6054;50.966;7.094;2023-11-21T00:07:19;7.00;;;3.97;;
11988;SDS011;6054;50.966;7.094;2023-11-21T00:09:46;8.43;;;4.15;;
11988;SDS011;6054;50.966;7.094;2023-11-21T00:12:13;8.23;;;3.85;;
11988;SDS011;6054;50.966;7.094;2023-11-21T00:14:41;6.13;;;3.63;;
11988;SDS011;6054;50.966;7.094;2023-11-21T00:17:08;7.05;;;5.07;;
11988;SDS011;6054;50.966;7.094;2023-11-21T00:19:35;6.30;;;4.72;;
11988;SDS011;6054;50.966;7.094;2023-11-21T00:22:02;5.70;;;4.10;;
11988;SDS011;6054;50.966;7.094;2023-11-21T00:24:31;4.63;;;3.67;;
11988;SDS011;6054;50.966;7.094;2023-11-21T00:26:58;10.30;;;4.35;;
11988;SDS011;6054;50.966;7.094;2023-11-21T00:29:25;4.78;;;3.75;;
11988;SDS011;6054;50.966;7.094;2023-11-21T00:31:54;8.90;;;4.07;;
11988;SDS011;6054;50.966;7.094;2023-11-21T00:34:21;5.68;;;3.30;;
11988;SDS011;6054;50.966;7.094;2023-11-21T00:36:48;8.60;;;4.05;;
11988;SDS011;6054;50.966;7.094;2023-11-21T00:39:14;6.15;;;3.75;;
11988;SDS011;6054;50.966;7.094;2023-11-21T00:41:41;7.20;;;4.43;;
11988;SDS011;6054;50.966;7.094;2023-11-21T00:44:09;5.70;;;3.83;;
11988;SDS011;6054;50.966;7.094;2023-11-21T00:46:36;5.75;;;3.70;;
11988;SDS011;6054;50.966;7.094;2023-11-21T00:49:05;7.13;;;3.55;;
11988;SDS011;6054;50.966;7.094;2023-11-21T00:51:32;3.75;;;3.35;;
11988;SDS011;6054;50.966;7.094;2023-11-21T00:53:59;5.05;;;3.25;;
11988;SDS011;6054;50.966;7.094;2023-11-21T00:56:26;3.33;;;3.03;;
11988;SDS011;6054;50.966;7.094;2023-11-21T00:58:53;3.95;;;3.38;;
11988;SDS011;6054;50.966;7.094;2023-11-21T01:01:20;6.40;;;3.45;;
11988;SDS011;6054;50.966;7.094;2023-11-21T01:03:48;6.60;;;3.70;;
11988;SDS011;6054;50.966;7.094;2023-11-21T01:06:17;7.00;;;3.75;;
11988;SDS011;6054;50.966;7.094;2023-11-21T01:08:44;4.60;;;3.05;;
11988;SDS011;6054;50.966;7.094;2023-11-21T01:11:11;3.90;;;3.55;;
11988;SDS011;6054;50.966;7.094;2023-11-21T01:13:38;7.55;;;3.22;;
11988;SDS011;6054;50.966;7.094;2023-11-21T01:16:06;5.25;;;3.00;;
11988;SDS011;6054;50.966;7.094;2023-11-21T01:18:34;5.13;;;3.88;;
11988;SDS011;6054;50.966;7.094;2023-11-21T01:21:01;5.50;;;3.60;;
11988;SDS011;6054;50.966;7.094;2023-11-21T01:23:29;6.80;;;3.50;;
11988;SDS011;6054;50.966;7.094;2023-11-21T01:25:56;5.55;;;3.45;;
11988;SDS011;6054;50.966;7.094;2023-11-21T01:28:23;3.67;;;3.25;;
11988;SDS011;6054;50.966;7.094;2023-11-21T01:30:51;4.38;;;3.30;;
11988;SDS011;6054;50.966;7.094;2023-11-21T01:33:21;6.82;;;3.70;;
11988;SDS011;6054;50.966;7.094;2023-11-21T01:35:50;5.72;;;3.13;;
11988;SDS011;6054;50.966;7.094;2023-11-21T01:38:19;4.93;;;3.60;;
11988;SDS011;6054;50.966;7.094;2023-11-21T01:40:48;6.28;;;3.42;;
11988;SDS011;6054;50.966;7.094;2023-11-21T01:43:15;6.95;;;3.28;;
11988;SDS011;6054;50.966;7.094;2023-11-21T01:45:42;3.72;;;3.40;;
11988;SDS011;6054;50.966;7.094;2023-11-21T01:48:10;4.50;;;3.45;;
11988;SDS011;6054;50.966;7.094;2023-11-21T01:50:39;5.65;;;3.80;;
11988;SDS011;6054;50.966;7.094;2023-11-21T01:53:06;9.32;;;3.85;;
11988;SDS011;6054;50.966;7.094;2023-11-21T01:55:33;5.75;;;3.20;;
11988;SDS011;6054;50.966;7.094;2023-11-21T01:58:01;5.43;;;3.75;;
11988;SDS011;6054;50.966;7.094;2023-11-21T02:00:28;4.05;;;3.40;;
11988;SDS011;6054;50.966;7.094;2023-11-21T02:02:56;6.22;;;3.50;;
11988;SDS011;6054;50.966;7.094;2023-11-21T02:05:24;4.88;;;3.28;;
11988;SDS011;6054;50.966;7.094;2023-11-21T02:07:51;5.18;;;3.28;;
11988;SDS011;6054;50.966;7.094;2023-11-21T02:10:18;3.35;;;3.05;;
11988;SDS011;6054;50.966;7.094;2023-11-21T02:12:47;5.35;;;4.47;;
11988;SDS011;6054;50.966;7.094;2023-11-21T02:15:17;7.03;;;4.93;;
11988;SDS011;6054;50.966;7.094;2023-11-21T02:17:46;5.50;;;3.70;;
11988;SDS011;6054;50.966;7.094;2023-11-21T02:20:16;4.03;;;3.58;;
11988;SDS011;6054;50.966;7.094;2023-11-21T02:22:49;4.80;;;4.15;;
11988;SDS011;6054;50.966;7.094;2023-11-21T02:25:17;5.40;;;3.65;;
11988;SDS011;6054;50.966;7.094;2023-11-21T02:27:44;7.72;;;3.40;;
11988;SDS011;6054;50.966;7.094;2023-11-21T02:30:13;5.93;;;3.33;;
11988;SDS011;6054;50.966;7.094;2023-11-21T02:32:41;5.55;;;4.20;;
11988;SDS011;6054;50.966;7.094;2023-11-21T02:35:08;6.68;;;3.97;;
11988;SDS011;6054;50.966;7.094;2023-11-21T02:37:37;6.93;;;3.65;;
11988;SDS011;6054;50.966;7.094;2023-11-21T02:40:06;6.32;;;3.50;;
11988;SDS011;6054;50.966;7.094;2023-11-21T02:42:35;5.90;;;3.35;;
11988;SDS011;6054;50.966;7.094;2023-11-21T02:45:02;4.00;;;3.60;;
11988;SDS011;6054;50.966;7.094;2023-11-21T02:47:30;8.93;;;3.72;;
11988;SDS011;6054;50.966;7.094;2023-11-21T02:49:57;5.65;;;4.43;;
11988;SDS011;6054;50.966;7.094;2023-11-21T02:52:24;6.90;;;3.35;;
11988;SDS011;6054;50.966;7.094;2023-11-21T02:54:51;6.78;;;4.43;;
11988;SDS011;6054;50.966;7.094;2023-11-21T02:57:19;6.25;;;3.60;;
11988;SDS011;6054;50.966;7.094;2023-11-21T02:59:46;8.25;;;3.97;;
11988;SDS011;6054;50.966;7.094;2023-11-21T03:02:12;4.13;;;3.58;;
11988;SDS011;6054;50.966;7.094;2023-11-21T03:04:40;7.05;;;3.85;;
11988;SDS011;6054;50.966;7.094;2023-11-21T03:07:08;6.30;;;4.00;;
11988;SDS011;6054;50.966;7.094;2023-11-21T03:09:35;8.65;;;3.85;;
11988;SDS011;6054;50.966;7.094;2023-11-21T03:12:02;8.07;;;3.90;;
11988;SDS011;6054;50.966;7.094;2023-11-21T03:14:31;9.13;;;4.20;;
11988;SDS011;6054;50.966;7.094;2023-11-21T03:16:58;5.55;;;3.83;;
11988;SDS011;6054;50.966;7.094;2023-11-21T03:19:25;6.43;;;4.30;;
11988;SDS011;6054;50.966;7.094;2023-11-21T03:21:52;7.75;;;3.65;;
11988;SDS011;6054;50.966;7.094;2023-11-21T03:24:19;7.80;;;3.58;;
11988;SDS011;6054;50.966;7.094;2023-11-21T03:26:47;4.72;;;4.22;;
11988;SDS011;6054;50.966;7.094;2023-11-21T03:29:15;5.40;;;3.95;;
11988;SDS011;6054;50.966;7.094;2023-11-21T03:31:43;7.53;;;4.22;;
11988;SDS011;6054;50.966;7.094;2023-11-21T03:34:14;5.25;;;4.50;;
11988;SDS011;6054;50.966;7.094;2023-11-21T03:36:41;6.07;;;4.05;;
11988;SDS011;6054;50.966;7.094;2023-11-21T03:39:08;5.20;;;4.03;;
11988;SDS011;6054;50.966;7.094;2023-11-21T03:41:35;4.80;;;3.80;;
11988;SDS011;6054;50.966;7.094;2023-11-21T03:44:02;4.80;;;3.78;;
11988;SDS011;6054;50.966;7.094;2023-11-21T03:46:29;11.68;;;4.15;;
11988;SDS011;6054;50.966;7.094;2023-11-21T03:48:57;6.07;;;4.38;;
11988;SDS011;6054;50.966;7.094;2023-11-21T03:51:24;7.20;;;4.00;;
11988;SDS011;6054;50.966;7.094;2023-11-21T03:53:51;6.50;;;3.88;;
11988;SDS011;6054;50.966;7.094;2023-11-21T03:56:18;4.40;;;4.00;;
11988;SDS011;6054;50.966;7.094;2023-11-21T03:58:46;6.13;;;3.80;;
11988;SDS011;6054;50.966;7.094;2023-11-21T04:01:18;7.10;;;4.45;;
11988;SDS011;6054;50.966;7.094;2023-11-21T04:03:47;6.35;;;4.20;;
11988;SDS011;6054;50.966;7.094;2023-11-21T04:06:16;10.43;;;4.53;;
11988;SDS011;6054;50.966;7.094;2023-11-21T04:08:45;8.63;;;4.03;;
11988;SDS011;6054;50.966;7.094;2023-11-21T04:11:12;7.07;;;4.40;;
11988;SDS011;6054;50.966;7.094;2023-11-21T04:13:41;4.55;;;4.07;;
11988;SDS011;6054;50.966;7.094;2023-11-21T04:16:08;6.05;;;4.25;;
11988;SDS011;6054;50.966;7.094;2023-11-21T04:18:35;7.18;;;4.28;;
11988;SDS011;6054;50.966;7.094;2023-11-21T04:21:02;7.22;;;4.38;;
11988;SDS011;6054;50.966;7.094;2023-11-21T04:23:31;8.07;;;4.40;;
11988;SDS011;6054;50.966;7.094;2023-11-21T04:25:58;10.65;;;4.10;;
11988;SDS011;6054;50.966;7.094;2023-11-21T04:28:25;6.65;;;4.20;;
11988;SDS011;6054;50.966;7.094;2023-11-21T04:30:52;8.57;;;5.03;;
11988;SDS011;6054;50.966;7.094;2023-11-21T04:33:18;9.05;;;4.90;;
11988;SDS011;6054;50.966;7.094;2023-11-21T04:35:46;7.00;;;4.20;;
11988;SDS011;6054;50.966;7.094;2023-11-21T04:38:13;9.80;;;4.18;;
11988;SDS011;6054;50.966;7.094;2023-11-21T04:40:41;7.38;;;5.13;;
11988;SDS011;6054;50.966;7.094;2023-11-21T04:43:08;5.82;;;4.50;;
11988;SDS011;6054;50.966;7.094;2023-11-21T04:45:35;9.50;;;4.40;;
11988;SDS011;6054;50.966;7.094;2023-11-21T04:48:02;6.85;;;5.15;;
11988;SDS011;6054;50.966;7.094;2023-11-21T04:50:30;9.30;;;4.82;;
11988;SDS011;6054;50.966;7.094;2023-11-21T04:52:57;8.52;;;4.90;;
11988;SDS011;6054;50.966;7.094;2023-11-21T04:55:24;9.10;;;5.45;;
11988;SDS011;6054;50.966;7.094;2023-11-21T04:57:54;5.63;;;4.40;;
11988;SDS011;6054;50.966;7.094;2023-11-21T05:00:21;10.40;;;4.95;;
11988;SDS011;6054;50.966;7.094;2023-11-21T05:02:49;9.05;;;5.88;;
11988;SDS011;6054;50.966;7.094;2023-11-21T05:05:15;7.97;;;5.30;;
11988;SDS011;6054;50.966;7.094;2023-11-21T05:07:42;19.20;;;5.55;;
11988;SDS011;6054;50.966;7.094;2023-11-21T05:10:10;7.53;;;5.50;;
11988;SDS011;6054;50.966;7.094;2023-11-21T05:12:39;9.50;;;5.50;;
11988;SDS011;6054;50.966;7.094;2023-11-21T05:15:09;8.25;;;5.63;;
11988;SDS011;6054;50.966;7.094;2023-11-21T05:17:40;11.68;;;5.22;;
11988;SDS011;6054;50.966;7.094;2023-11-21T05:20:08;8.77;;;5.40;;
11988;SDS011;6054;50.966;7.094;2023-11-21T05:22:37;11.75;;;5.80;;
11988;SDS011;6054;50.966;7.094;2023-11-21T05:25:04;8.20;;;4.97;;
11988;SDS011;6054;50.966;7.094;2023-11-21T05:27:32;8.65;;;5.72;;
11988;SDS011;6054;50.966;7.094;2023-11-21T05:30:00;10.55;;;5.75;;
11988;SDS011;6054;50.966;7.094;2023-11-21T05:32:29;12.27;;;6.30;;
11988;SDS011;6054;50.966;7.094;2023-11-21T05:34:55;11.20;;;6.07;;
11988;SDS011;6054;50.966;7.094;2023-11-21T05:37:23;10.95;;;5.88;;
11988;SDS011;6054;50.966;7.094;2023-11-21T05:39:52;6.65;;;5.07;;
11988;SDS011;6054;50.966;7.094;2023-11-21T05:42:19;9.68;;;5.50;;
11988;SDS011;6054;50.966;7.094;2023-11-21T05:44:46;10.98;;;5.93;;
11988;SDS011;6054;50.966;7.094;2023-11-21T05:47:13;10.38;;;7.05;;
11988;SDS011;6054;50.966;7.094;2023-11-21T05:49:41;12.90;;;6.43;;
11988;SDS011;6054;50.966;7.094;2023-11-21T05:52:08;10.35;;;6.07;;
11988;SDS011;6054;50.966;7.094;2023-11-21T05:54:35;12.23;;;6.43;;
11988;SDS011;6054;50.966;7.094;2023-11-21T05:57:02;10.85;;;6.18;;
11988;SDS011;6054;50.966;7.094;2023-11-21T05:59:29;10.65;;;6.05;;
11988;SDS011;6054;50.966;7.094;2023-11-21T06:01:56;12.40;;;6.25;;
11988;SDS011;6054;50.966;7.094;2023-11-21T06:04:23;12.63;;;7.43;;
11988;SDS011;6054;50.966;7.094;2023-11-21T06:06:52;10.70;;;6.30;;
11988;SDS011;6054;50.966;7.094;2023-11-21T06:09:19;12.40;;;6.65;;
11988;SDS011;6054;50.966;7.094;2023-11-21T06:11:46;13.02;;;7.28;;
11988;SDS011;6054;50.966;7.094;2023-11-21T06:14:13;13.00;;;7.28;;
11988;SDS011;6054;50.966;7.094;2023-11-21T06:16:43;9.82;;;6.20;;
11988;SDS011;6054;50.966;7.094;2023-11-21T06:19:10;11.80;;;5.63;;
11988;SDS011;6054;50.966;7.094;2023-11-21T06:21:37;9.85;;;5.70;;
11988;SDS011;6054;50.966;7.094;2023-11-21T06:24:05;9.93;;;5.72;;
11988;SDS011;6054;50.966;7.094;2023-11-21T06:26:32;10.25;;;6.20;;
11988;SDS011;6054;50.966;7.094;2023-11-21T06:28:59;9.88;;;5.63;;
11988;SDS011;6054;50.966;7.094;2023-11-21T06:31:25;11.30;;;5.72;;
11988;SDS011;6054;50.966;7.094;2023-11-21T06:33:52;13.02;;;5.75;;
11988;SDS011;6054;50.966;7.094;2023-11-21T06:36:19;12.70;;;6.07;;
11988;SDS011;6054;50.966;7.094;2023-11-21T06:38:46;10.43;;;5.60;;
11988;SDS011;6054;50.966;7.094;2023-11-21T06:41:14;11.50;;;6.40;;
11988;SDS011;6054;50.966;7.094;2023-11-21T06:43:41;11.35;;;5.75;;
11988;SDS011;6054;50.966;7.094;2023-11-21T06:46:11;7.40;;;5.95;;
11988;SDS011;6054;50.966;7.094;2023-11-21T06:48:39;8.43;;;5.82;;
11988;SDS011;6054;50.966;7.094;2023-11-21T06:51:06;12.02;;;5.97;;
11988;SDS011;6054;50.966;7.094;2023-11-21T06:53:33;10.38;;;6.35;;
11988;SDS011;6054;50.966;7.094;2023-11-21T06:56:01;11.50;;;6.28;;
11988;SDS011;6054;50.966;7.094;2023-11-21T06:58:30;13.23;;;6.45;;
11988;SDS011;6054;50.966;7.094;2023-11-21T07:00:57;9.77;;;5.78;;
11988;SDS011;6054;50.966;7.094;2023-11-21T07:03:24;12.65;;;6.50;;
11988;SDS011;6054;50.966;7.094;2023-11-21T07:05:51;13.48;;;7.30;;
11988;SDS011;6054;50.966;7.094;2023-11-21T07:08:18;12.40;;;6.80;;
11988;SDS011;6054;50.966;7.094;2023-11-21T07:10:44;14.02;;;7.65;;
11988;SDS011;6054;50.966;7.094;2023-11-21T07:13:12;12.85;;;8.38;;
11988;SDS011;6054;50.966;7.094;2023-11-21T07:15:40;13.18;;;7.55;;
11988;SDS011;6054;50.966;7.094;2023-11-21T07:18:07;17.27;;;8.18;;
11988;SDS011;6054;50.966;7.094;2023-11-21T07:20:34;15.63;;;8.02;;
11988;SDS011;6054;50.966;7.094;2023-11-21T07:23:00;14.25;;;7.38;;
11988;SDS011;6054;50.966;7.094;2023-11-21T07:25:29;16.42;;;8.13;;
11988;SDS011;6054;50.966;7.094;2023-11-21T07:27:56;16.05;;;7.60;;
11988;SDS011;6054;50.966;7.094;2023-11-21T07:30:23;17.23;;;7.22;;
11988;SDS011;6054;50.966;7.094;2023-11-21T07:32:51;18.02;;;8.23;;
11988;SDS011;6054;50.966;7.094;2023-11-21T07:35:18;13.82;;;7.55;;
11988;SDS011;6054;50.966;7.094;2023-11-21T07:37:45;13.23;;;7.28;;
11988;SDS011;6054;50.966;7.094;2023-11-21T07:40:13;17.58;;;7.95;;
11988;SDS011;6054;50.966;7.094;2023-11-21T07:42:41;17.15;;;8.30;;
11988;SDS011;6054;50.966;7.094;2023-11-21T07:45:09;15.27;;;8.00;;
11988;SDS011;6054;50.966;7.094;2023-11-21T07:47:36;16.50;;;7.57;;
11988;SDS011;6054;50.966;7.094;2023-11-21T07:50:06;14.50;;;7.20;;
11988;SDS011;6054;50.966;7.094;2023-11-21T07:52:34;18.42;;;7.88;;
11988;SDS011;6054;50.966;7.094;2023-11-21T07:55:01;14.10;;;7.70;;
11988;SDS011;6054;50.966;7.094;2023-11-21T07:57:28;14.50;;;7.53;;
11988;SDS011;6054;50.966;7.094;2023-11-21T07:59:55;18.50;;;7.80;;
11988;SDS011;6054;50.966;7.094;2023-11-21T08:02:22;22.20;;;9.10;;
11988;SDS011;6054;50.966;7.094;2023-11-21T08:04:49;14.25;;;7.93;;
11988;SDS011;6054;50.966;7.094;2023-11-21T08:07:18;14.70;;;8.38;;
11988;SDS011;6054;50.966;7.094;2023-11-21T08:09:45;17.83;;;8.95;;
11988;SDS011;6054;50.966;7.094;2023-11-21T08:12:14;17.70;;;8.63;;
11988;SDS011;6054;50.966;7.094;2023-11-21T08:14:41;15.63;;;8.88;;
11988;SDS011;6054;50.966;7.094;2023-11-21T08:17:09;15.95;;;8.43;;
11988;SDS011;6054;50.966;7.094;2023-11-21T08:19:36;15.13;;;9.02;;
11988;SDS011;6054;50.966;7.094;2023-11-21T08:22:03;16.95;;;9.15;;
11988;SDS011;6054;50.966;7.094;2023-11-21T08:24:34;18.63;;;9.27;;
11988;SDS011;6054;50.966;7.094;2023-11-21T08:27:00;18.48;;;9.63;;
11988;SDS011;6054;50.966;7.094;2023-11-21T08:29:29;20.58;;;9.75;;
11988;SDS011;6054;50.966;7.094;2023-11-21T08:31:56;26.83;;;12.38;;
11988;SDS011;6054;50.966;7.094;2023-11-21T08:34:23;26.42;;;11.98;;
11988;SDS011;6054;50.966;7.094;2023-11-21T08:36:50;33.45;;;13.20;;
11988;SDS011;6054;50.966;7.094;2023-11-21T08:39:17;32.33;;;14.02;;
11988;SDS011;6054;50.966;7.094;2023-11-21T08:41:45;36.30;;;13.85;;
11988;SDS011;6054;50.966;7.094;2023-11-21T08:44:13;29.67;;;13.30;;
11988;SDS011;6054;50.966;7.094;2023-11-21T08:46:41;29.33;;;13.13;;
11988;SDS011;6054;50.966;7.094;2023-11-21T08:49:10;36.40;;;14.38;;
11988;SDS011;6054;50.966;7.094;2023-11-21T08:51:37;32.92;;;15.30;;
11988;SDS011;6054;50.966;7.094;2023-11-21T08:54:04;36.75;;;15.27;;
11988;SDS011;6054;50.966;7.094;2023-11-21T08:56:33;39.30;;;15.43;;
11988;SDS011;6054;50.966;7.094;2023-11-21T08:59:01;31.70;;;14.57;;
11988;SDS011;6054;50.966;7.094;2023-11-21T09:01:28;38.90;;;15.50;;
11988;SDS011;6054;50.966;7.094;2023-11-21T09:03:56;32.60;;;16.02;;
11988;SDS011;6054;50.966;7.094;2023-11-21T09:06:23;38.00;;;15.25;;
11988;SDS011;6054;50.966;7.094;2023-11-21T09:08:50;34.20;;;15.02;;
11988;SDS011;6054;50.966;7.094;2023-11-21T09:11:26;37.55;;;15.50;;
11988;SDS011;6054;50.966;7.094;2023-11-21T09:13:58;29.05;;;14.27;;
11988;SDS011;6054;50.966;7.094;2023-11-21T09:19:08;34.58;;;15.20;;
11988;SDS011;6054;50.966;7.094;2023-11-21T09:21:35;31.77;;;15.55;;
11988;SDS011;6054;50.966;7.094;2023-11-21T09:24:02;35.75;;;16.20;;
11988;SDS011;6054;50.966;7.094;2023-11-21T09:26:29;33.80;;;15.40;;
11988;SDS011;6054;50.966;7.094;2023-11-21T09:28:56;34.20;;;15.35;;
11988;SDS011;6054;50.966;7.094;2023-11-21T09:31:22;30.27;;;15.23;;
11988;SDS011;6054;50.966;7.094;2023-11-21T09:33:51;42.55;;;15.38;;
11988;SDS011;6054;50.966;7.094;2023-11-21T09:36:17;42.35;;;17.33;;
11988;SDS011;6054;50.966;7.094;2023-11-21T09:38:46;33.53;;;16.27;;
11988;SDS011;6054;50.966;7.094;2023-11-21T09:41:15;34.03;;;15.80;;
11988;SDS011;6054;50.966;7.094;2023-11-21T09:43:49;34.10;;;14.23;;
11988;SDS011;6054;50.966;7.094;2023-11-21T09:46:20;35.65;;;15.70;;
11988;SDS011;6054;50.966;7.094;2023-11-21T09:48:51;37.55;;;16.85;;
11988;SDS011;6054;50.966;7.094;2023-11-21T09:51:19;34.63;;;17.02;;
11988;SDS011;6054;50.966;7.094;2023-11-21T09:53:48;37.08;;;16.38;;
11988;SDS011;6054;50.966;7.094;2023-11-21T09:56:18;34.72;;;16.63;;
11988;SDS011;6054;50.966;7.094;2023-11-21T09:58:50;39.95;;;16.15;;
11988;SDS011;6054;50.966;7.094;2023-11-21T10:01:18;34.47;;;15.70;;
11988;SDS011;6054;50.966;7.094;2023-11-21T10:03:46;37.65;;;16.60;;
11988;SDS011;6054;50.966;7.094;2023-11-21T10:06:15;29.98;;;15.73;;
11988;SDS011;6054;50.966;7.094;2023-11-21T10:08:43;43.05;;;18.17;;
11988;SDS011;6054;50.966;7.094;2023-11-21T10:11:11;37.67;;;17.60;;
11988;SDS011;6054;50.966;7.094;2023-11-21T10:13:40;44.67;;;19.73;;
11988;SDS011;6054;50.966;7.094;2023-11-21T10:16:08;49.42;;;19.55;;
11988;SDS011;6054;50.966;7.094;2023-11-21T10:18:39;46.08;;;18.70;;
11988;SDS011;6054;50.966;7.094;2023-11-21T10:21:06;47.75;;;20.30;;
11988;SDS011;6054;50.966;7.094;2023-11-21T10:23:35;48.47;;;20.65;;
11988;SDS011;6054;50.966;7.094;2023-11-21T10:26:02;46.72;;;20.15;;
11988;SDS011;6054;50.966;7.094;2023-11-21T10:28:35;45.40;;;21.48;;
11988;SDS011;6054;50.966;7.094;2023-11-21T10:31:06;45.83;;;21.40;;
11988;SDS011;6054;50.966;7.094;2023-11-21T10:33:33;47.75;;;22.75;;
11988;SDS011;6054;50.966;7.094;2023-11-21T10:36:00;47.45;;;20.92;;
11988;SDS011;6054;50.966;7.094;2023-11-21T10:38:27;44.35;;;22.15;;
11988;SDS011;6054;50.966;7.094;2023-11-21T10:40:57;50.78;;;21.15;;
11988;SDS011;6054;50.966;7.094;2023-11-21T10:43:25;49.42;;;21.95;;
11988;SDS011;6054;50.966;7.094;2023-11-21T10:45:52;46.03;;;23.35;;
11988;SDS011;6054;50.966;7.094;2023-11-21T10:48:24;45.63;;;22.65;;
11988;SDS011;6054;50.966;7.094;2023-11-21T10:50:52;56.58;;;24.65;;
11988;SDS011;6054;50.966;7.094;2023-11-21T10:53:19;48.95;;;24.27;;
11988;SDS011;6054;50.966;7.094;2023-11-21T10:55:46;46.33;;;23.23;;
11988;SDS011;6054;50.966;7.094;2023-11-21T10:58:15;50.78;;;24.48;;
11988;SDS011;6054;50.966;7.094;2023-11-21T11:00:43;50.75;;;22.35;;
11988;SDS011;6054;50.966;7.094;2023-11-21T11:03:11;57.97;;;24.25;;
11988;SDS011;6054;50.966;7.094;2023-11-21T11:05:39;50.42;;;23.63;;
11988;SDS011;6054;50.966;7.094;2023-11-21T11:08:11;44.17;;;22.25;;
11988;SDS011;6054;50.966;7.094;2023-11-21T11:10:43;44.58;;;22.23;;
11988;SDS011;6054;50.966;7.094;2023-11-21T11:13:11;47.08;;;23.45;;
11988;SDS011;6054;50.966;7.094;2023-11-21T11:15:41;47.83;;;22.30;;
11988;SDS011;6054;50.966;7.094;2023-11-21T11:18:09;44.13;;;22.15;;
11988;SDS011;6054;50.966;7.094;2023-11-21T11:20:36;44.15;;;22.20;;
11988;SDS011;6054;50.966;7.094;2023-11-21T11:23:11;49.78;;;23.25;;
11988;SDS011;6054;50.966;7.094;2023-11-21T11:26:01;46.50;;;23.77;;
11988;SDS011;6054;50.966;7.094;2023-11-21T11:28:42;45.50;;;22.25;;
11988;SDS011;6054;50.966;7.094;2023-11-21T11:31:17;42.67;;;22.35;;
11988;SDS011;6054;50.966;7.094;2023-11-21T11:33:52;45.25;;;22.35;;
11988;SDS011;6054;50.966;7.094;2023-11-21T11:36:25;43.50;;;19.88;;
11988;SDS011;6054;50.966;7.094;2023-11-21T11:38:55;33.75;;;19.05;;
11988;SDS011;6054;50.966;7.094;2023-11-21T11:41:24;36.08;;;19.63;;
11988;SDS011;6054;50.966;7.094;2023-11-21T11:43:52;41.47;;;20.38;;
11988;SDS011;6054;50.966;7.094;2023-11-21T11:46:20;41.55;;;20.05;;
11988;SDS011;6054;50.966;7.094;2023-11-21T11:49:02;38.78;;;19.95;;
11988;SDS011;6054;50.966;7.094;2023-11-21T11:51:36;31.33;;;18.98;;
11988;SDS011;6054;50.966;7.094;2023-11-21T11:54:03;35.78;;;18.38;;
11988;SDS011;6054;50.966;7.094;2023-11-21T11:56:33;38.70;;;18.17;;
11988;SDS011;6054;50.966;7.094;2023-11-21T11:59:02;31.52;;;17.20;;
11988;SDS011;6054;50.966;7.094;2023-11-21T12:01:33;37.72;;;18.40;;
11988;SDS011;6054;50.966;7.094;2023-11-21T12:06:59;35.20;;;17.63;;
11988;SDS011;6054;50.966;7.094;2023-11-21T12:09:28;32.88;;;17.67;;
11988;SDS011;6054;50.966;7.094;2023-11-21T12:11:57;35.15;;;17.38;;
11988;SDS011;6054;50.966;7.094;2023-11-21T12:14:25;34.67;;;17.42;;
11988;SDS011;6054;50.966;7.094;2023-11-21T12:16:53;35.60;;;17.67;;
11988;SDS011;6054;50.966;7.094;2023-11-21T12:19:20;37.15;;;17.95;;
11988;SDS011;6054;50.966;7.094;2023-11-21T12:21:48;32.95;;;16.67;;
11988;SDS011;6054;50.966;7.094;2023-11-21T12:24:16;33.28;;;17.33;;
11988;SDS011;6054;50.966;7.094;2023-11-21T12:26:43;34.33;;;17.45;;
11988;SDS011;6054;50.966;7.094;2023-11-21T12:29:10;32.28;;;17.75;;
11988;SDS011;6054;50.966;7.094;2023-11-21T12:31:37;37.28;;;18.60;;
11988;SDS011;6054;50.966;7.094;2023-11-21T12:34:06;32.13;;;17.52;;
11988;SDS011;6054;50.966;7.094;2023-11-21T12:36:36;37.58;;;18.63;;
11988;SDS011;6054;50.966;7.094;2023-11-21T12:39:03;32.17;;;17.27;;
11988;SDS011;6054;50.966;7.094;2023-11-21T12:41:30;33.08;;;17.02;;
11988;SDS011;6054;50.966;7.094;2023-11-21T12:43:56;34.53;;;18.08;;
11988;SDS011;6054;50.966;7.094;2023-11-21T12:46:24;36.95;;;18.60;;
11988;SDS011;6054;50.966;7.094;2023-11-21T12:48:54;40.17;;;18.83;;
11988;SDS011;6054;50.966;7.094;2023-11-21T12:51:22;35.42;;;17.20;;
11988;SDS011;6054;50.966;7.094;2023-11-21T12:53:49;39.13;;;18.85;;
11988;SDS011;6054;50.966;7.094;2023-11-21T12:56:17;40.38;;;18.20;;
11988;SDS011;6054;50.966;7.094;2023-11-21T12:58:48;35.03;;;17.42;;
11988;SDS011;6054;50.966;7.094;2023-11-21T13:01:16;38.83;;;18.42;;
11988;SDS011;6054;50.966;7.094;2023-11-21T13:03:46;39.75;;;18.67;;
11988;SDS011;6054;50.966;7.094;2023-11-21T13:06:15;34.30;;;17.40;;
11988;SDS011;6054;50.966;7.094;2023-11-21T13:08:46;35.10;;;17.20;;
11988;SDS011;6054;50.966;7.094;2023-11-21T13:11:13;36.80;;;16.55;;
11988;SDS011;6054;50.966;7.094;2023-11-21T13:13:41;36.05;;;16.42;;
11988;SDS011;6054;50.966;7.094;2023-11-21T13:16:09;29.25;;;17.08;;
11988;SDS011;6054;50.966;7.094;2023-11-21T13:18:36;36.92;;;16.55;;
11988;SDS011;6054;50.966;7.094;2023-11-21T13:21:05;34.65;;;17.98;;
11988;SDS011;6054;50.966;7.094;2023-11-21T13:23:36;27.77;;;15.55;;
11988;SDS011;6054;50.966;7.094;2023-11-21T13:26:04;33.50;;;15.43;;
11988;SDS011;6054;50.966;7.094;2023-11-21T13:28:31;35.80;;;16.77;;
11988;SDS011;6054;50.966;7.094;2023-11-21T13:30:59;34.47;;;16.02;;
11988;SDS011;6054;50.966;7.094;2023-11-21T13:33:34;35.58;;;16.27;;
11988;SDS011;6054;50.966;7.094;2023-11-21T13:36:03;36.50;;;16.38;;
11988;SDS011;6054;50.966;7.094;2023-11-21T13:38:33;33.53;;;17.27;;
11988;SDS011;6054;50.966;7.094;2023-11-21T13:41:01;29.95;;;16.35;;
11988;SDS011;6054;50.966;7.094;2023-11-21T13:43:35;30.60;;;15.40;;
11988;SDS011;6054;50.966;7.094;2023-11-21T13:46:04;33.92;;;14.93;;
11988;SDS011;6054;50.966;7.094;2023-11-21T13:48:42;31.08;;;13.95;;
11988;SDS011;6054;50.966;7.094;2023-11-21T13:51:15;23.92;;;13.07;;
11988;SDS011;6054;50.966;7.094;2023-11-21T13:53:43;27.25;;;13.63;;
11988;SDS011;6054;50.966;7.094;2023-11-21T13:56:12;23.13;;;12.30;;
11988;SDS011;6054;50.966;7.094;2023-11-21T13:58:44;32.20;;;13.63;;
11988;SDS011;6054;50.966;7.094;2023-11-21T14:01:16;28.20;;;13.70;;
11988;SDS011;6054;50.966;7.094;2023-11-21T14:04:06;33.90;;;14.55;;
11988;SDS011;6054;50.966;7.094;2023-11-21T14:06:44;33.42;;;14.70;;
11988;SDS011;6054;50.966;7.094;2023-11-21T14:09:13;30.10;;;14.73;;
11988;SDS011;6054;50.966;7.094;2023-11-21T14:11:47;36.97;;;14.07;;
11988;SDS011;6054;50.966;7.094;2023-11-21T14:14:16;36.80;;;15.50;;
11988;SDS011;6054;50.966;7.094;2023-11-21T14:16:43;33.65;;;15.05;;
11988;SDS011;6054;50.966;7.094;2023-11-21T14:19:10;36.78;;;15.50;;
11988;SDS011;6054;50.966;7.094;2023-11-21T14:21:40;27.58;;;14.15;;
11988;SDS011;6054;50.966;7.094;2023-11-21T14:24:09;35.13;;;15.48;;
11988;SDS011;6054;50.966;7.094;2023-11-21T14:26:37;34.53;;;15.07;;
11988;SDS011;6054;50.966;7.094;2023-11-21T14:29:05;33.42;;;14.68;;
11988;SDS011;6054;50.966;7.094;2023-11-21T14:31:34;32.75;;;15.23;;
11988;SDS011;6054;50.966;7.094;2023-11-21T14:34:02;27.27;;;13.82;;
11988;SDS011;6054;50.966;7.094;2023-11-21T14:36:31;32.90;;;14.68;;
11988;SDS011;6054;50.966;7.094;2023-11-21T14:38:58;32.10;;;15.10;;
11988;SDS011;6054;50.966;7.094;2023-11-21T14:41:24;33.00;;;14.70;;
11988;SDS011;6054;50.966;7.094;2023-11-21T14:43:53;28.45;;;14.23;;
11988;SDS011;6054;50.966;7.094;2023-11-21T14:46:20;32.63;;;15.48;;
11988;SDS011;6054;50.966;7.094;2023-11-21T14:48:48;36.75;;;15.80;;
11988;SDS011;6054;50.966;7.094;2023-11-21T14:51:23;39.40;;;15.45;;
11988;SDS011;6054;50.966;7.094;2023-11-21T14:53:55;34.83;;;15.27;;
11988;SDS011;6054;50.966;7.094;2023-11-21T14:56:25;34.20;;;16.60;;
11988;SDS011;6054;50.966;7.094;2023-11-21T14:58:56;32.70;;;15.75;;
11988;SDS011;6054;50.966;7.094;2023-11-21T15:01:23;35.67;;;15.43;;